createdAt,value
2023-03-01T00:01:37.191Z,23.50
2023-03-01T00:04:05.307Z,24.50
2023-03-01T00:06:33.619Z,22.40
2023-03-01T00:09:01.751Z,22.90
2023-03-01T00:11:31.566Z,23.60
2023-03-01T00:14:03.393Z,23.50
2023-03-01T00:16:42.138Z,23.70
2023-03-01T00:19:16.587Z,26.50
2023-03-01T00:21:44.944Z,25.20
2023-03-01T00:24:13.533Z,40.10
2023-03-01T00:26:59.494Z,30.20
2023-03-01T00:29:28.973Z,25.00
2023-03-01T00:31:56.939Z,26.10
2023-03-01T00:34:24.992Z,22.10
2023-03-01T00:36:52.974Z,21.40
2023-03-01T00:39:20.931Z,21.50
2023-03-01T00:41:49.221Z,19.00
2023-03-01T00:44:17.194Z,20.80
2023-03-01T00:46:45.232Z,19.00
2023-03-01T00:49:13.346Z,18.90
2023-03-01T00:51:42.494Z,19.20
2023-03-01T00:54:10.633Z,19.80
2023-03-01T00:56:38.731Z,17.60
2023-03-01T00:59:06.705Z,17.10
2023-03-01T01:01:34.745Z,17.50
2023-03-01T01:04:05.707Z,18.40
2023-03-01T01:06:40.512Z,19.50
2023-03-01T01:09:08.914Z,19.80
2023-03-01T01:11:40.286Z,19.70
2023-03-01T01:14:08.314Z,20.70
2023-03-01T01:16:36.267Z,25.10
2023-03-01T01:19:05.337Z,24.10
2023-03-01T01:21:33.569Z,25.30
2023-03-01T01:24:01.483Z,28.10
2023-03-01T01:26:31.890Z,28.90
2023-03-01T01:29:01.507Z,39.90
2023-03-01T01:31:30.766Z,37.60
2023-03-01T01:34:00.601Z,34.10
2023-03-01T01:36:29.551Z,21.80
2023-03-01T01:38:57.964Z,23.30
2023-03-01T01:41:28.364Z,20.70
2023-03-01T01:44:27.966Z,21.40
2023-03-01T01:47:02.177Z,17.00
2023-03-01T01:49:43.936Z,16.80
2023-03-01T01:52:23.680Z,17.60
2023-03-01T01:54:54.902Z,17.20
2023-03-01T01:57:27.800Z,16.60
2023-03-01T02:00:00.312Z,19.50
2023-03-01T02:02:28.521Z,22.80
2023-03-01T02:05:11.594Z,20.50
2023-03-01T02:07:40.983Z,21.10
2023-03-01T02:10:09.880Z,19.40
2023-03-01T02:12:42.818Z,19.90
2023-03-01T02:15:13.483Z,29.10
2023-03-01T02:17:42.130Z,23.80
2023-03-01T02:20:32.184Z,39.70
2023-03-01T02:23:01.551Z,43.50
2023-03-01T02:25:41.813Z,32.40
2023-03-01T02:28:21.112Z,19.60
2023-03-01T02:31:20.182Z,24.40
2023-03-01T02:33:49.828Z,19.30
2023-03-01T02:36:31.880Z,20.00
2023-03-01T02:39:02.613Z,19.70
2023-03-01T02:41:36.497Z,17.70
2023-03-01T02:44:05.514Z,16.90
2023-03-01T02:46:33.989Z,17.70
2023-03-01T02:49:02.117Z,16.20
2023-03-01T02:51:48.611Z,17.90
2023-03-01T02:54:37.697Z,16.80
2023-03-01T02:57:06.949Z,17.50
2023-03-01T02:59:40.487Z,17.10
2023-03-01T03:02:37.182Z,15.60
2023-03-01T03:05:32.440Z,16.10
2023-03-01T03:08:03.317Z,17.20
2023-03-01T03:10:38.978Z,19.00
2023-03-01T03:13:12.591Z,18.20
2023-03-01T03:15:41.600Z,21.90
2023-03-01T03:18:13.674Z,23.40
2023-03-01T03:20:43.936Z,18.60
2023-03-01T03:23:12.711Z,16.70
2023-03-01T03:25:40.767Z,17.20
2023-03-01T03:28:11.701Z,16.80
2023-03-01T03:30:41.764Z,15.50
2023-03-01T03:33:13.485Z,15.20
2023-03-01T03:35:47.152Z,17.60
2023-03-01T03:38:17.746Z,16.40
2023-03-01T03:41:09.383Z,16.90
2023-03-01T03:43:38.989Z,23.40
2023-03-01T03:46:08.129Z,20.00
2023-03-01T03:48:38.888Z,19.00
2023-03-01T03:51:07.841Z,17.70
2023-03-01T03:53:38.339Z,34.90
2023-03-01T03:56:06.939Z,25.50
2023-03-01T03:58:35.271Z,41.70
2023-03-01T04:01:03.804Z,30.00
2023-03-01T04:03:33.140Z,22.90
2023-03-01T04:06:02.169Z,22.70
2023-03-01T04:08:30.235Z,55.10
2023-03-01T04:11:23.425Z,40.60
2023-03-01T04:13:53.971Z,21.20
2023-03-01T04:16:25.977Z,32.50
2023-03-01T04:18:54.556Z,20.50
2023-03-01T04:21:23.248Z,19.10
2023-03-01T04:23:53.710Z,19.40
2023-03-01T04:26:21.846Z,19.10
2023-03-01T04:28:51.478Z,18.40
2023-03-01T04:31:22.414Z,16.90
2023-03-01T04:33:56.196Z,17.30
2023-03-01T04:36:27.524Z,17.10
2023-03-01T04:38:56.695Z,17.00
2023-03-01T04:41:26.306Z,18.00
2023-03-01T04:43:54.574Z,20.00
2023-03-01T04:46:23.191Z,19.50
2023-03-01T04:48:51.336Z,21.80
2023-03-01T04:51:19.550Z,23.20
2023-03-01T04:53:47.807Z,19.70
2023-03-01T04:56:16.494Z,19.30
2023-03-01T04:58:45.187Z,19.00
2023-03-01T05:01:17.192Z,16.90
2023-03-01T05:03:46.668Z,18.10
2023-03-01T05:06:15.502Z,17.20
2023-03-01T05:08:44.179Z,18.40
2023-03-01T05:11:13.288Z,19.30
2023-03-01T05:13:41.852Z,21.80
2023-03-01T05:16:13.590Z,18.60
2023-03-01T05:18:43.297Z,19.80
2023-03-01T05:21:14.079Z,19.30
2023-03-01T05:23:42.199Z,19.70
2023-03-01T05:26:25.889Z,20.60
2023-03-01T05:28:59.977Z,18.50
2023-03-01T05:31:29.672Z,17.70
2023-03-01T05:33:57.839Z,19.50
2023-03-01T05:36:25.908Z,18.30
2023-03-01T05:38:53.883Z,21.80
2023-03-01T05:41:22.026Z,36.40
2023-03-01T05:43:50.087Z,30.40
2023-03-01T05:46:18.064Z,26.60
2023-03-01T05:48:46.029Z,17.50
2023-03-01T05:51:13.957Z,17.20
2023-03-01T05:53:41.932Z,16.30
2023-03-01T05:56:09.920Z,18.40
2023-03-01T05:58:39.742Z,24.90
2023-03-01T06:01:13.714Z,22.50
2023-03-01T06:03:41.705Z,19.40
2023-03-01T06:06:09.704Z,20.50
2023-03-01T06:08:37.647Z,54.70
2023-03-01T06:11:06.283Z,40.50
2023-03-01T06:13:34.654Z,46.50
2023-03-01T06:16:06.059Z,46.50
2023-03-01T06:18:34.253Z,31.90
2023-03-01T06:21:02.188Z,23.60
2023-03-01T06:23:30.303Z,16.90
2023-03-01T06:25:58.266Z,17.20
2023-03-01T06:28:47.170Z,15.80
2023-03-01T06:31:15.271Z,16.10
2023-03-01T06:33:43.359Z,15.20
2023-03-01T06:36:11.482Z,14.50
2023-03-01T06:38:41.805Z,15.80
2023-03-01T06:41:09.906Z,15.50
2023-03-01T06:43:37.940Z,15.30
2023-03-01T06:46:08.041Z,15.50
2023-03-01T06:48:36.474Z,16.80
2023-03-01T06:51:04.548Z,16.90
2023-03-01T06:53:32.510Z,17.30
2023-03-01T06:56:03.565Z,15.50
2023-03-01T06:58:31.563Z,18.60
2023-03-01T07:00:59.598Z,14.70
2023-03-01T07:03:27.570Z,16.00
2023-03-01T07:05:55.671Z,17.40
2023-03-01T07:08:23.649Z,15.00
2023-03-01T07:10:58.918Z,17.50
2023-03-01T07:13:27.683Z,16.20
2023-03-01T07:15:55.826Z,14.30
2023-03-01T07:18:25.308Z,16.20
2023-03-01T07:20:54.162Z,17.20
2023-03-01T07:23:22.326Z,15.30
2023-03-01T07:25:54.662Z,14.20
2023-03-01T07:28:26.091Z,13.80
2023-03-01T07:30:54.368Z,13.30
2023-03-01T07:33:22.488Z,13.50
2023-03-01T07:35:58.011Z,14.70
2023-03-01T07:38:26.951Z,13.80
2023-03-01T07:41:00.212Z,11.40
2023-03-01T07:43:29.589Z,12.20
2023-03-01T07:46:01.966Z,13.00
2023-03-01T07:48:31.807Z,13.00
2023-03-01T07:51:05.438Z,14.80
2023-03-01T07:53:35.159Z,15.30
2023-03-01T07:56:13.999Z,15.90
2023-03-01T07:58:43.621Z,16.20
2023-03-01T08:01:21.067Z,17.70
2023-03-01T08:03:49.489Z,16.70
2023-03-01T08:06:18.776Z,16.40
2023-03-01T08:08:47.113Z,17.10
2023-03-01T08:11:16.681Z,18.40
2023-03-01T08:13:45.114Z,15.30
2023-03-01T08:16:15.696Z,16.80
2023-03-01T08:18:44.562Z,18.70
2023-03-01T08:21:16.515Z,16.60
2023-03-01T08:23:45.751Z,17.10
2023-03-01T08:26:20.150Z,15.70
2023-03-01T08:28:50.192Z,15.40
2023-03-01T08:31:21.913Z,13.60
2023-03-01T08:33:56.561Z,13.30
2023-03-01T08:36:27.142Z,13.80
2023-03-01T08:38:56.083Z,14.50
2023-03-01T08:41:24.608Z,14.20
2023-03-01T08:43:53.961Z,13.90
2023-03-01T08:46:22.043Z,14.90
2023-03-01T08:48:49.976Z,15.80
2023-03-01T08:51:20.634Z,14.70
2023-03-01T08:53:51.543Z,15.10
2023-03-01T08:56:20.547Z,14.30
2023-03-01T08:58:49.750Z,14.90
2023-03-01T09:01:20.038Z,14.70
2023-03-01T09:03:48.470Z,14.20
2023-03-01T09:06:17.895Z,14.20
2023-03-01T09:08:49.137Z,14.40
2023-03-01T09:11:22.549Z,15.90
2023-03-01T09:13:51.475Z,14.80
2023-03-01T09:16:22.041Z,15.20
2023-03-01T09:18:52.888Z,14.30
2023-03-01T09:21:37.603Z,14.00
2023-03-01T09:24:14.857Z,14.50
2023-03-01T09:26:44.025Z,14.30
2023-03-01T09:29:12.042Z,14.30
2023-03-01T09:31:40.000Z,15.80
2023-03-01T09:34:08.912Z,14.30
2023-03-01T09:36:37.854Z,14.60
2023-03-01T09:39:09.522Z,12.20
2023-03-01T09:41:38.069Z,15.30
2023-03-01T09:44:38.096Z,15.40
2023-03-01T09:47:10.943Z,16.20
2023-03-01T09:49:43.239Z,14.80
2023-03-01T09:52:49.932Z,14.00
2023-03-01T09:55:33.054Z,15.70
2023-03-01T09:58:38.261Z,15.20
2023-03-01T10:01:33.898Z,13.00
2023-03-01T10:04:20.519Z,15.70
2023-03-01T10:09:38.548Z,15.90
2023-03-01T10:12:13.766Z,15.50
2023-03-01T10:15:06.099Z,14.10
2023-03-01T10:17:52.493Z,15.70
2023-03-01T10:20:26.588Z,15.60
2023-03-01T10:22:56.512Z,15.70
2023-03-01T10:26:05.452Z,16.30
2023-03-01T10:29:03.560Z,18.50
2023-03-01T10:31:40.407Z,15.80
2023-03-01T10:34:14.920Z,19.00
2023-03-01T10:36:44.105Z,18.10
2023-03-01T10:39:19.145Z,18.00
2023-03-01T10:41:57.780Z,18.50
2023-03-01T10:44:48.934Z,18.60
2023-03-01T10:47:17.016Z,17.20
2023-03-01T10:49:54.470Z,20.00
2023-03-01T10:52:25.885Z,19.40
2023-03-01T10:55:26.478Z,21.10
2023-03-01T10:58:22.114Z,21.20
2023-03-01T11:01:07.220Z,20.90
2023-03-01T11:03:38.133Z,20.00
2023-03-01T11:06:12.126Z,20.50
2023-03-01T11:08:46.079Z,20.00
2023-03-01T11:11:23.418Z,20.30
2023-03-01T11:14:25.865Z,19.90
2023-03-01T11:17:06.165Z,18.90
2023-03-01T11:19:34.461Z,21.70
2023-03-01T11:22:11.791Z,19.90
2023-03-01T11:25:08.571Z,20.30
2023-03-01T11:27:44.654Z,19.20
2023-03-01T11:30:22.076Z,18.60
2023-03-01T11:33:15.307Z,20.80
2023-03-01T11:36:08.574Z,18.70
2023-03-01T11:38:39.056Z,21.00
2023-03-01T11:41:18.535Z,19.20
2023-03-01T11:43:56.906Z,19.50
2023-03-01T11:46:37.105Z,20.60
2023-03-01T11:49:42.498Z,20.10
2023-03-01T11:52:16.189Z,19.10
2023-03-01T11:54:53.461Z,25.20
2023-03-01T11:57:22.570Z,21.50
2023-03-01T12:00:08.495Z,21.90
2023-03-01T12:02:45.581Z,18.10
2023-03-01T12:06:04.670Z,17.70
2023-03-01T12:08:39.050Z,19.30
2023-03-01T12:11:27.117Z,17.60
2023-03-01T12:14:34.429Z,17.70
2023-03-01T12:17:23.024Z,20.20
2023-03-01T12:20:28.984Z,19.70
2023-03-01T12:23:35.572Z,20.00
2023-03-01T12:26:37.110Z,15.90
2023-03-01T12:29:32.361Z,17.30
2023-03-01T12:32:12.216Z,15.40
2023-03-01T12:35:14.527Z,14.70
2023-03-01T12:37:51.353Z,14.70
2023-03-01T12:40:28.935Z,14.80
2023-03-01T12:43:23.347Z,14.90
2023-03-01T12:46:26.623Z,15.50
2023-03-01T12:49:00.656Z,16.50
2023-03-01T12:51:32.780Z,15.20
2023-03-01T12:54:07.025Z,16.00
2023-03-01T12:56:39.381Z,14.20
2023-03-01T12:59:42.104Z,16.00
2023-03-01T13:02:52.285Z,17.80
2023-03-01T13:05:30.789Z,11.80
2023-03-01T13:08:13.986Z,13.50
2023-03-01T13:10:51.092Z,15.80
2023-03-01T13:13:24.509Z,12.90
2023-03-01T13:15:53.505Z,12.60
2023-03-01T13:18:23.230Z,13.90
2023-03-01T13:21:02.642Z,15.00
2023-03-01T13:23:39.481Z,14.80
2023-03-01T13:26:17.910Z,15.10
2023-03-01T13:28:46.123Z,15.00
2023-03-01T13:31:17.102Z,12.30
2023-03-01T13:33:48.103Z,12.60
2023-03-01T13:36:35.642Z,13.70
2023-03-01T13:39:33.447Z,13.50
2023-03-01T13:42:01.773Z,11.40
2023-03-01T13:44:40.008Z,12.30
2023-03-01T13:47:08.229Z,12.10
2023-03-01T13:50:05.758Z,13.50
2023-03-01T13:53:03.092Z,12.50
2023-03-01T13:55:36.016Z,11.50
2023-03-01T13:58:16.336Z,12.00
2023-03-01T14:00:44.397Z,12.30
2023-03-01T14:03:18.524Z,10.80
2023-03-01T14:06:14.529Z,11.80
2023-03-01T14:08:46.185Z,11.70
2023-03-01T14:11:37.516Z,10.40
2023-03-01T14:14:27.598Z,8.60
2023-03-01T14:17:01.830Z,12.70
2023-03-01T14:19:34.116Z,11.70
2023-03-01T14:22:13.845Z,9.50
2023-03-01T14:24:50.411Z,9.60
2023-03-01T14:27:19.344Z,9.80
2023-03-01T14:30:02.853Z,8.80
2023-03-01T14:32:33.583Z,10.00
2023-03-01T14:35:01.713Z,10.00
2023-03-01T14:37:33.055Z,10.00
2023-03-01T14:40:03.544Z,10.30
2023-03-01T14:42:37.806Z,12.70
2023-03-01T14:45:08.834Z,11.50
2023-03-01T14:47:39.456Z,10.50
2023-03-01T14:50:33.119Z,11.10
2023-03-01T14:53:04.848Z,11.80
2023-03-01T14:55:37.327Z,12.50
2023-03-01T14:58:07.628Z,12.80
2023-03-01T15:00:37.186Z,13.10
2023-03-01T15:03:34.222Z,12.70
2023-03-01T15:06:03.468Z,13.60
2023-03-01T15:08:35.644Z,14.10
2023-03-01T15:11:23.772Z,14.50
2023-03-01T15:13:53.346Z,15.20
2023-03-01T15:16:26.745Z,16.90
2023-03-01T15:19:04.636Z,16.50
2023-03-01T15:21:35.242Z,15.80
2023-03-01T15:24:29.655Z,15.60
2023-03-01T15:27:07.990Z,16.70
2023-03-01T15:29:41.986Z,16.30
2023-03-01T15:32:41.023Z,15.50
2023-03-01T15:35:40.602Z,16.90
2023-03-01T15:38:29.525Z,16.40
2023-03-01T15:40:59.274Z,16.60
2023-03-01T15:43:46.732Z,16.60
2023-03-01T15:46:23.070Z,16.60
2023-03-01T15:48:55.726Z,16.70
2023-03-01T15:51:33.144Z,16.20
2023-03-01T15:54:05.317Z,17.10
2023-03-01T15:56:34.410Z,15.80
2023-03-01T15:59:04.093Z,17.10
2023-03-01T16:01:35.812Z,16.40
2023-03-01T16:04:04.016Z,17.10
2023-03-01T16:06:32.343Z,20.30
2023-03-01T16:09:00.679Z,17.30
2023-03-01T16:11:28.895Z,16.30
2023-03-01T16:13:57.111Z,17.60
2023-03-01T16:16:25.514Z,18.30
2023-03-01T16:18:55.483Z,25.00
2023-03-01T16:21:25.748Z,25.10
2023-03-01T16:23:54.056Z,18.10
2023-03-01T16:26:22.287Z,19.80
2023-03-01T16:28:50.424Z,17.10
2023-03-01T16:31:20.821Z,17.20
2023-03-01T16:33:51.060Z,18.50
2023-03-01T16:36:24.515Z,16.60
2023-03-01T16:38:53.378Z,16.40
2023-03-01T16:41:23.885Z,17.40
2023-03-01T16:43:52.639Z,20.90
2023-03-01T16:46:26.583Z,23.90
2023-03-01T16:48:55.910Z,24.70
2023-03-01T16:51:25.182Z,23.10
2023-03-01T16:53:53.725Z,27.60
2023-03-01T16:56:21.842Z,47.20
2023-03-01T16:58:50.034Z,42.90
2023-03-01T17:01:20.794Z,40.30
2023-03-01T17:03:50.396Z,44.40
2023-03-01T17:06:21.630Z,37.90
2023-03-01T17:08:49.672Z,31.30
2023-03-01T17:11:20.564Z,36.10
2023-03-01T17:13:49.235Z,42.70
2023-03-01T17:16:20.353Z,37.50
2023-03-01T17:18:49.215Z,27.10
2023-03-01T17:21:17.555Z,23.70
2023-03-01T17:23:50.379Z,21.30
2023-03-01T17:26:18.525Z,18.80
2023-03-01T17:28:52.530Z,20.50
2023-03-01T17:31:20.760Z,18.40
2023-03-01T17:33:50.124Z,22.50
2023-03-01T17:36:19.481Z,22.40
2023-03-01T17:38:47.624Z,21.60
2023-03-01T17:41:18.599Z,22.00
2023-03-01T17:43:46.760Z,19.90
2023-03-01T17:46:14.834Z,21.20
2023-03-01T17:48:42.876Z,19.40
2023-03-01T17:51:12.074Z,19.80
2023-03-01T17:53:40.347Z,19.60
2023-03-01T17:56:08.865Z,20.90
2023-03-01T17:58:38.623Z,20.10
2023-03-01T18:01:14.105Z,21.20
2023-03-01T18:03:46.603Z,19.80
2023-03-01T18:06:22.573Z,21.10
2023-03-01T18:08:52.327Z,21.10
2023-03-01T18:11:22.841Z,20.90
2023-03-01T18:13:51.873Z,21.00
2023-03-01T18:16:22.231Z,27.00
2023-03-01T18:18:55.647Z,23.40
2023-03-01T18:21:24.496Z,21.70
2023-03-01T18:23:53.100Z,22.80
2023-03-01T18:26:22.667Z,21.20
2023-03-01T18:28:52.215Z,22.60
2023-03-01T18:31:22.771Z,20.40
2023-03-01T18:33:55.323Z,21.30
2023-03-01T18:36:29.135Z,22.20
2023-03-01T18:38:57.875Z,22.60
2023-03-01T18:41:31.016Z,22.30
2023-03-01T18:43:59.636Z,22.70
2023-03-01T18:46:27.822Z,22.60
2023-03-01T18:48:56.203Z,25.90
2023-03-01T18:51:27.013Z,31.40
2023-03-01T18:53:56.373Z,27.40
2023-03-01T18:56:25.401Z,27.10
2023-03-01T18:58:53.541Z,26.20
2023-03-01T19:01:24.341Z,27.40
2023-03-01T19:03:53.068Z,27.90
2023-03-01T19:06:21.225Z,29.10
2023-03-01T19:08:50.386Z,29.50
2023-03-01T19:11:18.442Z,26.60
2023-03-01T19:13:47.407Z,27.80
2023-03-01T19:16:24.522Z,25.50
2023-03-01T19:18:59.698Z,26.20
2023-03-01T19:21:30.140Z,21.40
2023-03-01T19:23:59.790Z,22.50
2023-03-01T19:26:28.903Z,22.50
2023-03-01T19:28:57.448Z,24.00
2023-03-01T19:31:31.005Z,22.50
2023-03-01T19:34:11.045Z,21.40
2023-03-01T19:36:43.889Z,21.60
2023-03-01T19:39:14.065Z,21.60
2023-03-01T19:41:43.725Z,35.40
2023-03-01T19:44:12.116Z,37.00
2023-03-01T19:46:40.627Z,31.50
2023-03-01T19:49:08.973Z,21.60
2023-03-01T19:51:39.321Z,21.30
2023-03-01T19:54:09.783Z,21.10
2023-03-01T19:56:38.921Z,20.30
2023-03-01T19:59:07.491Z,21.50
2023-03-01T20:01:35.610Z,20.60
2023-03-01T20:04:04.362Z,19.70
2023-03-01T20:06:32.832Z,19.20
2023-03-01T20:09:09.244Z,18.10
2023-03-01T20:11:47.225Z,19.20
2023-03-01T20:14:15.276Z,17.40
2023-03-01T20:16:43.303Z,19.90
2023-03-01T20:19:11.283Z,18.50
2023-03-01T20:21:39.343Z,18.10
2023-03-01T20:24:07.759Z,18.10
2023-03-01T20:26:37.334Z,17.90
2023-03-01T20:29:07.613Z,18.60
2023-03-01T20:31:36.756Z,18.60
2023-03-01T20:34:04.827Z,18.10
2023-03-01T20:36:34.268Z,17.90
2023-03-01T20:39:02.820Z,22.10
2023-03-01T20:41:30.834Z,24.30
2023-03-01T20:44:00.409Z,20.90
2023-03-01T20:46:32.899Z,17.40
2023-03-01T20:49:01.558Z,16.70
2023-03-01T20:51:30.052Z,17.20
2023-03-01T20:53:58.033Z,15.30
2023-03-01T20:56:27.255Z,17.30
2023-03-01T20:59:09.682Z,16.00
2023-03-01T21:01:39.517Z,17.50
2023-03-01T21:04:07.722Z,15.50
2023-03-01T21:06:36.516Z,15.00
2023-03-01T21:09:05.262Z,15.50
2023-03-01T21:11:33.635Z,15.90
2023-03-01T21:14:02.502Z,15.90
2023-03-01T21:16:30.873Z,16.30
2023-03-01T21:19:01.771Z,16.20
2023-03-01T21:21:29.748Z,14.00
2023-03-01T21:23:57.723Z,16.10
2023-03-01T21:26:27.493Z,16.10
2023-03-01T21:29:03.505Z,16.20
2023-03-01T21:31:35.045Z,17.60
2023-03-01T21:34:06.074Z,16.60
2023-03-01T21:36:35.803Z,16.60
2023-03-01T21:39:05.654Z,16.60
2023-03-01T21:41:36.914Z,17.20
2023-03-01T21:44:07.265Z,19.60
2023-03-01T21:46:38.064Z,24.80
2023-03-01T21:49:07.406Z,26.40
2023-03-01T21:51:36.629Z,25.80
2023-03-01T21:54:05.974Z,25.30
2023-03-01T21:56:39.075Z,24.10
2023-03-01T21:59:11.156Z,25.30
2023-03-01T22:01:39.356Z,24.60
2023-03-01T22:04:07.455Z,25.30
2023-03-01T22:06:41.168Z,25.50
2023-03-01T22:09:14.141Z,21.10
2023-03-01T22:11:46.203Z,20.00
2023-03-01T22:14:14.971Z,20.70
2023-03-01T22:16:45.839Z,22.00
2023-03-01T22:19:16.016Z,18.90
2023-03-01T22:21:47.351Z,20.80
2023-03-01T22:24:17.909Z,17.20
2023-03-01T22:26:48.037Z,16.50
2023-03-01T22:29:19.850Z,18.10
2023-03-01T22:31:48.425Z,17.20
2023-03-01T22:34:17.332Z,17.50
2023-03-01T22:36:47.040Z,17.60
2023-03-01T22:39:17.535Z,18.80
2023-03-01T22:41:47.408Z,20.50
2023-03-01T22:44:18.358Z,20.30
2023-03-01T22:46:47.031Z,19.50
2023-03-01T22:49:15.761Z,21.80
2023-03-01T22:51:47.602Z,20.80
2023-03-01T22:54:16.793Z,22.30
2023-03-01T22:56:45.334Z,21.40
2023-03-01T22:59:15.495Z,22.30
2023-03-01T23:01:48.139Z,22.70
2023-03-01T23:04:17.654Z,22.10
2023-03-01T23:06:56.005Z,23.50
2023-03-01T23:09:28.422Z,23.50
2023-03-01T23:11:59.093Z,23.20
2023-03-01T23:14:30.592Z,24.00
2023-03-01T23:17:00.769Z,25.50
2023-03-01T23:19:30.701Z,32.90
2023-03-01T23:21:58.736Z,31.40
2023-03-01T23:24:31.817Z,29.10
2023-03-01T23:27:02.408Z,26.00
2023-03-01T23:29:31.900Z,19.50
2023-03-01T23:32:00.636Z,18.70
2023-03-01T23:34:28.712Z,19.40
2023-03-01T23:36:58.200Z,19.70
2023-03-01T23:39:27.651Z,19.60
2023-03-01T23:41:56.844Z,18.30
2023-03-01T23:44:24.829Z,17.50
2023-03-01T23:46:53.160Z,18.90
2023-03-01T23:49:23.332Z,19.00
2023-03-01T23:51:51.643Z,16.40
2023-03-01T23:54:22.227Z,17.10
2023-03-01T23:56:50.666Z,16.70
2023-03-01T23:59:22.070Z,17.10
